Time;durP1;ratioP1;P1;durP2;ratioP2;P2;SDS_P1;SDS_P2;PMS_P1;PMS_P2;Temp;Humidity;BMP_temperature;BMP_pressure;BME280_temperature;BME280_humidity;BME280_pressure;Samples;Min_cycle;Max_cycle;Signal;HPM_P1;HPM_P2
2023/09/24 00:00:10;;;;;;;4.43;1.87;;;10.90;99.90;;;;;;5019501;28;20206;-66
2023/09/24 00:02:38;;;;;;;2.27;1.80;;;10.90;99.90;;;;;;5022474;28;20214;-66
2023/09/24 00:05:06;;;;;;;2.53;1.90;;;10.80;99.90;;;;;;5022383;28;20577;-66
2023/09/24 00:07:33;;;;;;;3.40;1.70;;;10.80;99.90;;;;;;5019916;28;20313;-66
2023/09/24 00:10:00;;;;;;;1.60;1.50;;;10.80;99.90;;;;;;5019392;28;20205;-66
2023/09/24 00:12:27;;;;;;;5.47;1.70;;;10.80;99.90;;;;;;5021212;28;20293;-66
2023/09/24 00:14:54;;;;;;;2.23;1.60;;;10.80;99.90;;;;;;5022536;28;20238;-66
2023/09/24 00:17:21;;;;;;;2.13;1.70;;;10.80;99.90;;;;;;5021503;28;20226;-66
2023/09/24 00:19:49;;;;;;;5.20;1.70;;;10.80;99.90;;;;;;5019039;28;20635;-66
2023/09/24 00:22:15;;;;;;;3.53;1.50;;;10.80;99.90;;;;;;5019368;28;20223;-66
2023/09/24 00:24:43;;;;;;;2.00;1.50;;;10.80;99.90;;;;;;5022484;28;20222;-66
2023/09/24 00:27:10;;;;;;;3.30;2.00;;;10.80;99.90;;;;;;5022497;28;20595;-66
2023/09/24 00:29:37;;;;;;;3.97;1.70;;;10.70;99.90;;;;;;5019298;28;20211;-66
2023/09/24 00:32:04;;;;;;;2.30;1.53;;;10.70;99.90;;;;;;5019086;28;20204;-68
2023/09/24 00:34:31;;;;;;;3.37;2.03;;;10.60;99.90;;;;;;5020815;28;20645;-65
2023/09/24 00:36:59;;;;;;;2.93;1.70;;;10.60;99.90;;;;;;5022348;28;20199;-66
2023/09/24 00:39:26;;;;;;;4.10;1.80;;;10.60;99.90;;;;;;5021054;28;20731;-66
2023/09/24 00:41:52;;;;;;;2.33;1.50;;;10.60;99.90;;;;;;5018986;28;20203;-66
2023/09/24 00:44:19;;;;;;;3.20;2.03;;;10.70;99.90;;;;;;5019107;28;20231;-65
2023/09/24 00:46:46;;;;;;;2.83;1.77;;;10.60;99.90;;;;;;5021681;28;20580;-64
2023/09/24 00:49:14;;;;;;;2.57;1.73;;;10.60;99.90;;;;;;5022216;28;20209;-66
2023/09/24 00:51:42;;;;;;;1.67;1.57;;;10.60;99.90;;;;;;5022607;28;20264;-65
2023/09/24 00:54:12;;;;;;;5.00;1.80;;;10.50;99.90;;;;;;5033527;28;20650;-65
2023/09/24 00:56:39;;;;;;;3.93;1.83;;;10.50;99.90;;;;;;5033619;28;20209;-66
2023/09/24 00:59:08;;;;;;;2.83;2.10;;;10.50;99.90;;;;;;5033713;28;20206;-66
2023/09/24 01:01:35;;;;;;;2.60;1.57;;;10.40;99.90;;;;;;5033612;28;20737;-66
2023/09/24 01:04:04;;;;;;;3.10;1.73;;;10.40;99.90;;;;;;5033727;28;20222;-65
2023/09/24 01:06:31;;;;;;;5.10;2.10;;;10.40;99.90;;;;;;5033440;28;20634;-66
2023/09/24 01:08:58;;;;;;;2.77;1.60;;;10.40;99.90;;;;;;5033893;28;20297;-66
2023/09/24 01:11:27;;;;;;;4.53;1.50;;;10.40;99.90;;;;;;5033485;28;20698;-68
2023/09/24 01:13:54;;;;;;;5.17;1.63;;;10.30;99.90;;;;;;5033445;28;20264;-66
2023/09/24 01:16:20;;;;;;;2.80;1.63;;;10.30;99.90;;;;;;5033285;28;20213;-67
2023/09/24 01:18:47;;;;;;;5.30;2.27;;;10.30;99.90;;;;;;5033760;28;20205;-67
2023/09/24 01:21:16;;;;;;;4.17;1.73;;;10.20;99.90;;;;;;5033667;28;20202;-67
2023/09/24 01:23:45;;;;;;;3.67;1.60;;;10.20;99.90;;;;;;5025380;28;20289;-67
2023/09/24 01:26:13;;;;;;;5.33;2.00;;;10.10;99.90;;;;;;5033280;28;20206;-67
2023/09/24 01:28:40;;;;;;;4.10;1.50;;;10.10;99.90;;;;;;5033670;28;20226;-66
2023/09/24 01:31:08;;;;;;;2.90;1.60;;;10.20;99.90;;;;;;5033617;28;20250;-67
2023/09/24 01:33:38;;;;;;;5.10;1.90;;;10.10;99.90;;;;;;5033372;28;20279;-66
2023/09/24 01:36:05;;;;;;;2.40;1.80;;;10.10;99.90;;;;;;5033405;28;20211;-66
2023/09/24 01:38:32;;;;;;;3.87;1.90;;;10.10;99.90;;;;;;5033227;28;20202;-66
2023/09/24 01:41:03;;;;;;;5.17;1.80;;;10.10;99.90;;;;;;5033052;28;20276;-67
2023/09/24 01:43:31;;;;;;;4.33;1.70;;;10.10;99.90;;;;;;5033398;28;20280;-68
2023/09/24 01:45:58;;;;;;;6.20;1.80;;;10.00;99.90;;;;;;5032726;28;20670;-66
2023/09/24 01:48:25;;;;;;;2.10;1.70;;;10.00;99.90;;;;;;5033111;28;20237;-67
2023/09/24 01:50:52;;;;;;;4.23;1.60;;;9.90;99.90;;;;;;5032988;28;20198;-67
2023/09/24 01:53:19;;;;;;;2.50;1.70;;;9.90;99.90;;;;;;5032702;28;20209;-66
2023/09/24 01:55:47;;;;;;;2.60;2.03;;;9.90;99.90;;;;;;5032785;28;20233;-67
2023/09/24 01:58:15;;;;;;;4.70;1.93;;;9.90;99.90;;;;;;5033096;28;20208;-67
2023/09/24 02:00:42;;;;;;;2.37;1.60;;;9.90;99.90;;;;;;5024924;28;20225;-68
2023/09/24 02:03:11;;;;;;;3.40;1.70;;;9.90;99.90;;;;;;5032657;28;20241;-66
2023/09/24 02:05:39;;;;;;;4.50;2.30;;;9.90;99.90;;;;;;5032851;28;20226;-66
2023/09/24 02:08:10;;;;;;;2.63;2.07;;;9.90;99.90;;;;;;5032696;28;20218;-66
2023/09/24 02:10:39;;;;;;;5.30;1.87;;;9.90;99.90;;;;;;5032750;28;22270;-65
2023/09/24 02:13:06;;;;;;;2.20;1.53;;;9.90;99.90;;;;;;5032383;28;20647;-67
2023/09/24 02:15:35;;;;;;;6.43;2.00;;;9.80;99.90;;;;;;5032454;28;20230;-66
2023/09/24 02:18:04;;;;;;;2.87;1.77;;;9.70;99.90;;;;;;5032524;28;20729;-66
2023/09/24 02:20:32;;;;;;;3.40;1.90;;;9.70;99.90;;;;;;5032387;28;20629;-66
2023/09/24 02:23:00;;;;;;;3.50;1.70;;;9.70;99.90;;;;;;5032402;28;20239;-66
2023/09/24 02:25:28;;;;;;;2.03;1.80;;;9.60;99.90;;;;;;5032155;28;20230;-65
2023/09/24 02:27:56;;;;;;;2.77;1.67;;;9.60;99.90;;;;;;5032509;28;20309;-65
2023/09/24 02:30:25;;;;;;;4.63;1.70;;;9.50;99.90;;;;;;5032286;28;20218;-66
2023/09/24 02:32:53;;;;;;;4.00;2.13;;;9.50;99.90;;;;;;5032457;28;20202;-66
2023/09/24 02:35:20;;;;;;;3.77;1.77;;;9.40;99.90;;;;;;5032000;28;20233;-66
2023/09/24 02:37:50;;;;;;;5.67;1.90;;;9.30;99.90;;;;;;5032458;28;20205;-67
2023/09/24 02:40:18;;;;;;;2.80;1.70;;;9.30;99.90;;;;;;5032602;28;20226;-67
2023/09/24 02:42:46;;;;;;;3.23;2.10;;;9.30;99.90;;;;;;5024339;28;20252;-67
2023/09/24 02:45:15;;;;;;;4.13;2.00;;;9.30;99.90;;;;;;5031638;28;20257;-67
2023/09/24 02:47:42;;;;;;;3.27;1.90;;;9.30;99.90;;;;;;5031759;28;20229;-65
2023/09/24 02:50:13;;;;;;;3.17;1.80;;;9.30;99.90;;;;;;5032069;28;20229;-69
2023/09/24 02:52:41;;;;;;;3.33;2.10;;;9.20;99.90;;;;;;5032089;28;20222;-67
2023/09/24 02:55:10;;;;;;;4.10;1.83;;;9.30;99.90;;;;;;5031554;28;20222;-67
2023/09/24 02:57:37;;;;;;;2.63;1.73;;;9.30;99.90;;;;;;5031656;28;20671;-67
2023/09/24 03:00:11;;;;;;;1.93;1.60;;;9.30;99.90;;;;;;5031892;28;20207;-67
2023/09/24 03:02:38;;;;;;;4.23;1.80;;;9.30;99.90;;;;;;5031537;28;20202;-66
2023/09/24 03:05:08;;;;;;;3.00;1.80;;;9.30;99.90;;;;;;5031597;28;20229;-67
2023/09/24 03:07:36;;;;;;;5.17;1.90;;;9.30;99.90;;;;;;5031767;28;20284;-67
2023/09/24 03:10:05;;;;;;;3.43;1.80;;;9.30;99.90;;;;;;5031453;28;20225;-67
2023/09/24 03:12:32;;;;;;;3.87;1.80;;;9.30;99.90;;;;;;5031502;28;20209;-66
2023/09/24 03:14:59;;;;;;;5.13;1.93;;;9.30;99.90;;;;;;5030775;28;20229;-67
2023/09/24 03:17:26;;;;;;;2.77;1.87;;;9.30;99.90;;;;;;5031647;28;20229;-67
2023/09/24 03:19:52;;;;;;;2.20;2.00;;;9.30;99.90;;;;;;5031511;28;20669;-67
2023/09/24 03:22:20;;;;;;;1.87;1.70;;;9.20;99.90;;;;;;5031671;28;20284;-67
2023/09/24 03:24:48;;;;;;;3.90;2.00;;;9.30;99.90;;;;;;5031344;28;20262;-67
2023/09/24 03:27:15;;;;;;;3.83;2.60;;;9.30;99.90;;;;;;5031375;28;20710;-66
2023/09/24 03:29:42;;;;;;;2.43;1.80;;;9.30;99.90;;;;;;5031298;28;20645;-67
2023/09/24 03:32:09;;;;;;;3.10;1.80;;;9.30;99.90;;;;;;5031472;28;20596;-68
2023/09/24 03:34:36;;;;;;;3.10;1.70;;;9.30;99.90;;;;;;5030981;28;20241;-68
2023/09/24 03:37:03;;;;;;;3.00;1.70;;;9.20;99.90;;;;;;5031474;28;20276;-67
2023/09/24 03:39:29;;;;;;;3.37;2.17;;;9.20;99.90;;;;;;5031456;28;20228;-68
2023/09/24 03:41:57;;;;;;;4.53;2.40;;;9.20;99.90;;;;;;5031728;28;20233;-67
2023/09/24 03:44:24;;;;;;;3.33;2.43;;;9.10;99.90;;;;;;5032266;28;20230;-68
2023/09/24 03:46:51;;;;;;;3.53;2.30;;;9.10;99.90;;;;;;5031326;28;20293;-67
2023/09/24 03:49:17;;;;;;;4.40;2.17;;;9.10;99.90;;;;;;5031079;28;20237;-66
2023/09/24 03:51:44;;;;;;;3.43;2.43;;;9.10;99.90;;;;;;5030965;28;20206;-66
2023/09/24 03:54:11;;;;;;;3.00;1.90;;;9.10;99.90;;;;;;5030902;28;20238;-65
2023/09/24 03:56:39;;;;;;;4.97;2.13;;;9.20;99.90;;;;;;5030988;28;20202;-65
2023/09/24 03:59:07;;;;;;;4.30;2.27;;;9.20;99.90;;;;;;5030993;28;20225;-65
2023/09/24 04:01:34;;;;;;;3.03;2.17;;;9.10;99.90;;;;;;5030872;28;20733;-65
2023/09/24 04:04:02;;;;;;;2.47;2.00;;;9.20;99.90;;;;;;5030833;28;20222;-66
2023/09/24 04:06:29;;;;;;;3.03;1.87;;;9.20;99.90;;;;;;5030755;28;20202;-66
2023/09/24 04:08:55;;;;;;;3.13;1.90;;;9.10;99.90;;;;;;5030655;28;20218;-67
2023/09/24 04:11:22;;;;;;;3.30;2.00;;;9.10;99.90;;;;;;5031061;28;20217;-66
2023/09/24 04:13:49;;;;;;;2.77;1.70;;;9.10;99.90;;;;;;5031149;28;20206;-68
2023/09/24 04:16:17;;;;;;;2.37;1.70;;;9.10;99.90;;;;;;5030881;28;20228;-68
2023/09/24 04:18:44;;;;;;;6.27;1.90;;;9.10;99.90;;;;;;5030621;28;20202;-68
2023/09/24 04:21:17;;;;;;;2.77;2.13;;;9.10;99.90;;;;;;5030922;28;20203;-71
2023/09/24 04:23:45;;;;;;;3.87;1.73;;;9.10;99.90;;;;;;5030414;28;20206;-67
2023/09/24 04:26:21;;;;;;;5.47;2.23;;;9.10;99.90;;;;;;5031028;28;20233;-67
2023/09/24 04:28:47;;;;;;;2.40;2.10;;;9.10;99.90;;;;;;5026625;28;20242;-66
2023/09/24 04:31:14;;;;;;;2.23;1.93;;;9.10;99.90;;;;;;5034728;28;20210;-67
2023/09/24 04:33:42;;;;;;;3.30;2.07;;;9.10;99.90;;;;;;5034523;28;20246;-67
2023/09/24 04:36:09;;;;;;;3.33;2.00;;;9.10;99.90;;;;;;5034240;28;20209;-67
2023/09/24 04:38:37;;;;;;;4.50;2.30;;;9.10;99.90;;;;;;5034299;28;20202;-67
2023/09/24 04:41:03;;;;;;;3.00;2.37;;;9.10;99.90;;;;;;5034797;28;20264;-66
2023/09/24 04:43:30;;;;;;;4.20;2.00;;;9.10;99.90;;;;;;5034184;28;20608;-67
2023/09/24 04:45:57;;;;;;;2.60;1.93;;;9.10;99.90;;;;;;5033984;28;20708;-67
2023/09/24 04:48:24;;;;;;;2.67;2.23;;;9.00;99.90;;;;;;5034163;28;20218;-65
2023/09/24 04:50:55;;;;;;;3.47;2.57;;;9.00;99.90;;;;;;5034531;28;20208;-67
2023/09/24 04:53:22;;;;;;;5.93;2.27;;;9.00;99.90;;;;;;5034693;28;20210;-67
2023/09/24 04:55:49;;;;;;;3.33;1.90;;;9.00;99.90;;;;;;5034170;28;20225;-66
2023/09/24 04:58:15;;;;;;;3.50;1.90;;;9.00;99.90;;;;;;5034576;28;20695;-67
2023/09/24 05:00:42;;;;;;;5.20;2.30;;;9.00;99.90;;;;;;5034151;28;20225;-67
2023/09/24 05:03:09;;;;;;;2.43;1.90;;;9.00;99.90;;;;;;5034035;28;20198;-67
2023/09/24 05:05:36;;;;;;;3.37;2.00;;;9.00;99.90;;;;;;5033778;28;20226;-67
2023/09/24 05:08:05;;;;;;;5.70;2.27;;;9.00;99.90;;;;;;5033991;28;20207;-67
2023/09/24 05:10:32;;;;;;;5.20;2.20;;;9.00;99.90;;;;;;5033845;28;20209;-67
2023/09/24 05:12:59;;;;;;;2.67;1.90;;;9.10;99.90;;;;;;5034013;28;20206;-68
2023/09/24 05:15:26;;;;;;;3.63;2.00;;;9.00;99.90;;;;;;5033701;28;20222;-67
2023/09/24 05:17:52;;;;;;;4.10;1.83;;;9.00;99.90;;;;;;5034148;28;20213;-66
2023/09/24 05:20:19;;;;;;;2.53;1.90;;;9.00;99.90;;;;;;5033926;28;20203;-67
2023/09/24 05:22:46;;;;;;;2.10;1.90;;;9.00;99.90;;;;;;5033475;28;20199;-67
2023/09/24 05:25:14;;;;;;;6.53;4.00;;;9.00;99.90;;;;;;5033370;28;20226;-67
2023/09/24 05:27:41;;;;;;;3.33;1.77;;;9.10;99.90;;;;;;5033601;28;20720;-65
2023/09/24 05:30:08;;;;;;;3.23;2.03;;;9.10;99.90;;;;;;5033364;28;20225;-66
2023/09/24 05:32:35;;;;;;;3.07;2.00;;;9.10;99.90;;;;;;5033530;28;20214;-67
2023/09/24 05:35:03;;;;;;;3.43;2.10;;;9.10;99.90;;;;;;5033364;28;20331;-66
2023/09/24 05:37:29;;;;;;;4.13;2.30;;;9.10;99.90;;;;;;5033115;28;20669;-68
2023/09/24 05:39:57;;;;;;;3.67;2.30;;;9.10;99.90;;;;;;5032991;28;20209;-68
2023/09/24 05:42:25;;;;;;;4.53;2.03;;;9.10;99.90;;;;;;5033492;28;20233;-68
2023/09/24 05:44:52;;;;;;;3.73;1.77;;;9.20;99.90;;;;;;5033155;28;20267;-66
2023/09/24 05:47:19;;;;;;;3.57;1.80;;;9.20;99.90;;;;;;5033462;28;20233;-68
2023/09/24 05:49:45;;;;;;;2.47;1.57;;;9.20;99.90;;;;;;5033204;28;20225;-66
2023/09/24 05:52:12;;;;;;;3.40;2.33;;;9.30;99.90;;;;;;5033183;28;20737;-66
2023/09/24 05:54:41;;;;;;;2.60;1.90;;;9.40;99.90;;;;;;5032932;28;20233;-67
2023/09/24 05:57:07;;;;;;;2.73;2.07;;;9.40;99.90;;;;;;5033100;28;20209;-65
2023/09/24 05:59:35;;;;;;;4.57;2.00;;;9.40;99.90;;;;;;5032910;28;20746;-67
2023/09/24 06:02:02;;;;;;;2.57;1.60;;;9.50;99.90;;;;;;5032902;28;20210;-68
2023/09/24 06:04:31;;;;;;;2.73;1.97;;;9.50;99.90;;;;;;5032585;28;20233;-67
2023/09/24 06:06:57;;;;;;;2.27;1.70;;;9.60;99.90;;;;;;5033342;28;20652;-67
2023/09/24 06:09:24;;;;;;;2.23;1.70;;;9.70;99.90;;;;;;5033025;28;20222;-66
2023/09/24 06:11:51;;;;;;;2.37;1.87;;;9.80;99.90;;;;;;5032631;28;20198;-67
2023/09/24 06:14:18;;;;;;;2.70;1.80;;;9.90;99.90;;;;;;5032788;28;20720;-66
2023/09/24 06:16:46;;;;;;;3.67;1.70;;;10.10;99.90;;;;;;5032508;28;20211;-66
2023/09/24 06:19:12;;;;;;;3.83;1.80;;;10.90;99.90;;;;;;5032450;28;20199;-66
2023/09/24 06:21:39;;;;;;;3.63;1.63;;;12.10;99.90;;;;;;5032155;28;20281;-66
2023/09/24 06:24:06;;;;;;;2.50;1.50;;;13.50;99.90;;;;;;5032195;28;20230;-65
2023/09/24 06:26:35;;;;;;;2.73;1.60;;;14.80;99.90;;;;;;5031940;28;20591;-66
2023/09/24 06:29:01;;;;;;;2.40;1.60;;;16.00;99.90;;;;;;5032683;28;20214;-66
2023/09/24 06:31:28;;;;;;;1.63;1.35;;;17.00;99.90;;;;;;5032290;28;20230;-66
2023/09/24 06:33:57;;;;;;;2.17;1.40;;;17.60;99.90;;;;;;5032156;28;20691;-66
2023/09/24 06:36:24;;;;;;;1.85;1.55;;;17.50;99.90;;;;;;5032620;28;20664;-66
2023/09/24 06:38:51;;;;;;;2.08;1.60;;;17.10;99.90;;;;;;5024346;28;20229;-65
2023/09/24 06:41:18;;;;;;;2.60;1.42;;;17.00;99.90;;;;;;5032384;28;20241;-66
2023/09/24 06:43:44;;;;;;;1.60;1.35;;;17.00;99.90;;;;;;5033137;28;20229;-63
2023/09/24 06:46:11;;;;;;;3.45;1.63;;;16.90;99.90;;;;;;5033218;28;20251;-64
2023/09/24 06:48:38;;;;;;;2.58;1.60;;;16.90;99.90;;;;;;5032779;28;20210;-61
2023/09/24 06:51:10;;;;;;;2.40;1.52;;;17.50;99.90;;;;;;5032687;28;20205;-62
2023/09/24 06:53:39;;;;;;;2.15;1.33;;;18.50;99.90;;;;;;5034118;28;20213;-62
2023/09/24 06:56:06;;;;;;;2.55;1.40;;;19.70;99.90;;;;;;5033904;28;20206;-63
2023/09/24 06:58:34;;;;;;;1.75;1.40;;;20.60;99.90;;;;;;5033278;28;20203;-62
2023/09/24 07:01:01;;;;;;;3.25;1.70;;;21.50;99.90;;;;;;5034472;28;20643;-62
2023/09/24 07:03:28;;;;;;;3.65;2.45;;;22.20;99.90;;;;;;5034401;28;20618;-63
2023/09/24 07:05:55;;;;;;;2.90;1.48;;;22.80;99.90;;;;;;5034126;28;20582;-62
2023/09/24 07:08:23;;;;;;;1.70;1.20;;;23.40;99.90;;;;;;5032721;28;20656;-62
2023/09/24 07:11:24;;;;;;;3.92;1.58;;;23.50;99.90;;;;;;5031790;28;20229;-62
2023/09/24 07:13:51;;;;;;;5.03;1.77;;;23.70;99.90;;;;;;5023570;28;20229;-62
2023/09/24 07:16:20;;;;;;;2.15;1.45;;;23.50;99.90;;;;;;5031966;28;20633;-61
2023/09/24 07:18:48;;;;;;;3.85;2.78;;;23.40;99.90;;;;;;5032214;28;20214;-62
2023/09/24 07:21:15;;;;;;;4.20;3.13;;;23.80;99.90;;;;;;5031645;28;20209;-62
2023/09/24 07:23:42;;;;;;;3.15;1.50;;;24.20;99.90;;;;;;5031776;28;20202;-62
2023/09/24 07:26:09;;;;;;;1.70;1.60;;;24.70;99.90;;;;;;5031816;28;20206;-62
2023/09/24 07:28:37;;;;;;;2.80;1.70;;;25.00;99.90;;;;;;5031584;28;20297;-61
2023/09/24 07:31:03;;;;;;;1.88;1.20;;;25.10;99.90;;;;;;5031749;28;20220;-61
2023/09/24 07:33:30;;;;;;;4.50;2.80;;;25.40;99.90;;;;;;5031846;28;20213;-62
2023/09/24 07:35:57;;;;;;;2.35;1.60;;;25.60;99.90;;;;;;5031997;28;20218;-62
2023/09/24 07:38:23;;;;;;;3.22;1.60;;;25.90;99.90;;;;;;5031815;28;20210;-61
2023/09/24 07:40:50;;;;;;;4.07;1.83;;;26.20;98.40;;;;;;5031752;28;20194;-63
2023/09/24 07:43:17;;;;;;;5.80;2.08;;;26.10;98.80;;;;;;5031379;28;20206;-61
2023/09/24 07:45:45;;;;;;;3.35;1.70;;;25.70;98.70;;;;;;5031554;28;20530;-61
2023/09/24 07:48:14;;;;;;;4.25;2.60;;;24.80;99.80;;;;;;5031768;28;20210;-61
2023/09/24 07:50:41;;;;;;;2.85;1.60;;;24.00;99.90;;;;;;5031482;28;20221;-62
2023/09/24 07:53:09;;;;;;;1.90;1.70;;;23.00;99.90;;;;;;5031649;28;20198;-61
2023/09/24 07:55:37;;;;;;;5.40;1.75;;;21.60;99.90;;;;;;5057631;22;20222;-61
2023/09/24 07:58:04;;;;;;;1.77;1.45;;;20.40;99.90;;;;;;5050827;28;20221;-61
2023/09/24 08:00:31;;;;;;;2.13;1.50;;;19.20;99.90;;;;;;5050910;28;20202;-62
2023/09/24 08:03:00;;;;;;;1.83;1.40;;;18.10;99.90;;;;;;5054231;28;20604;-62
2023/09/24 08:05:27;;;;;;;3.10;1.80;;;17.40;99.90;;;;;;5041921;28;20276;-62
2023/09/24 08:07:53;;;;;;;3.28;1.88;;;16.90;99.90;;;;;;5026917;28;20235;-61
2023/09/24 08:10:20;;;;;;;2.78;1.80;;;16.70;99.90;;;;;;5034778;28;20226;-62
2023/09/24 08:12:47;;;;;;;3.53;1.70;;;16.40;99.90;;;;;;5034708;28;20213;-62
2023/09/24 08:15:13;;;;;;;4.72;1.85;;;16.10;99.90;;;;;;5034686;28;20277;-62
2023/09/24 08:17:40;;;;;;;2.08;1.60;;;15.90;99.90;;;;;;5034669;28;20230;-62
2023/09/24 08:20:09;;;;;;;3.95;2.00;;;15.60;99.90;;;;;;5034798;28;20659;-62
2023/09/24 08:22:36;;;;;;;4.00;1.83;;;15.50;99.90;;;;;;5034660;28;20219;-62
2023/09/24 08:25:03;;;;;;;2.65;1.52;;;15.50;99.90;;;;;;5034329;28;20707;-62
2023/09/24 08:27:30;;;;;;;3.55;1.70;;;15.40;99.90;;;;;;5034480;28;20403;-62
2023/09/24 08:29:57;;;;;;;2.70;1.85;;;15.50;99.90;;;;;;5034752;28;20245;-61
2023/09/24 08:32:24;;;;;;;3.33;1.88;;;15.60;99.90;;;;;;5034373;28;20218;-62
2023/09/24 08:34:51;;;;;;;3.70;1.70;;;15.70;99.90;;;;;;5034074;28;20218;-61
2023/09/24 08:37:19;;;;;;;4.95;2.70;;;15.90;99.90;;;;;;5034489;28;20217;-62
2023/09/24 08:39:46;;;;;;;3.63;1.70;;;16.00;99.90;;;;;;5034222;28;20245;-62
2023/09/24 08:42:15;;;;;;;2.80;1.60;;;16.10;99.90;;;;;;5034558;28;20568;-61
2023/09/24 08:44:42;;;;;;;3.78;1.75;;;16.10;99.90;;;;;;5034036;28;20229;-62
2023/09/24 08:47:10;;;;;;;4.70;1.42;;;16.20;99.90;;;;;;5034364;28;20206;-62
2023/09/24 08:49:37;;;;;;;4.40;1.77;;;16.40;99.90;;;;;;5034059;28;20248;-61
2023/09/24 08:52:07;;;;;;;3.85;1.63;;;16.40;99.90;;;;;;5034065;28;20210;-62
2023/09/24 08:54:37;;;;;;;2.72;1.92;;;16.50;99.90;;;;;;5033682;28;20230;-62
2023/09/24 08:57:03;;;;;;;4.97;2.03;;;16.70;99.90;;;;;;5034321;28;20214;-62
2023/09/24 08:59:30;;;;;;;2.72;1.50;;;16.80;99.90;;;;;;5034036;28;20202;-61
2023/09/24 09:01:57;;;;;;;1.75;1.27;;;16.80;99.90;;;;;;5033850;28;20230;-61
2023/09/24 09:04:23;;;;;;;2.58;1.48;;;16.80;99.90;;;;;;5033865;28;20237;-62
2023/09/24 09:06:51;;;;;;;3.10;1.50;;;16.90;99.90;;;;;;5033301;28;20203;-62
2023/09/24 09:09:24;;;;;;;3.08;1.85;;;17.00;99.90;;;;;;5033650;28;20232;-61
2023/09/24 09:11:52;;;;;;;4.63;2.05;;;17.10;99.90;;;;;;5033549;28;20236;-59
2023/09/24 09:14:34;;;;;;;3.75;1.50;;;17.20;99.90;;;;;;5032667;28;20230;-61
2023/09/24 09:17:01;;;;;;;3.35;1.58;;;17.10;99.90;;;;;;5026101;28;20206;-62
2023/09/24 09:19:28;;;;;;;2.58;1.90;;;17.10;99.90;;;;;;5033623;28;20233;-61
2023/09/24 09:21:55;;;;;;;2.78;1.63;;;17.20;99.90;;;;;;5025389;28;20203;-62
2023/09/24 09:24:23;;;;;;;5.07;1.60;;;17.30;99.90;;;;;;5033158;28;20229;-62
2023/09/24 09:26:56;;;;;;;2.40;1.40;;;17.50;99.90;;;;;;5033533;28;20206;-61
2023/09/24 09:29:23;;;;;;;2.17;1.23;;;17.60;99.90;;;;;;5033402;28;20206;-61
2023/09/24 09:31:50;;;;;;;3.33;1.63;;;17.80;99.90;;;;;;5032935;28;20202;-60
2023/09/24 09:34:18;;;;;;;2.13;1.50;;;17.90;99.90;;;;;;5033416;28;20226;-62
2023/09/24 09:36:44;;;;;;;3.45;1.67;;;18.00;99.90;;;;;;5033232;28;20264;-61
2023/09/24 09:39:11;;;;;;;2.00;1.48;;;18.10;99.90;;;;;;5033518;28;20209;-61
2023/09/24 09:41:42;;;;;;;2.22;1.40;;;18.20;99.90;;;;;;5033299;28;20203;-60
2023/09/24 09:44:11;;;;;;;2.63;1.45;;;18.20;99.90;;;;;;5033325;28;20230;-61
2023/09/24 09:46:39;;;;;;;4.32;1.60;;;18.30;99.90;;;;;;5033129;28;20221;-60
2023/09/24 09:49:08;;;;;;;4.95;1.40;;;18.30;99.90;;;;;;5033396;28;20209;-61
2023/09/24 09:51:42;;;;;;;3.15;1.48;;;18.50;99.90;;;;;;5033275;28;20236;-63
2023/09/24 09:54:12;;;;;;;4.25;1.63;;;18.50;99.90;;;;;;5032761;28;20589;-61
2023/09/24 09:56:41;;;;;;;5.03;2.00;;;18.50;99.90;;;;;;5032800;28;20211;-61
2023/09/24 09:59:10;;;;;;;3.05;1.50;;;18.60;99.90;;;;;;5032958;28;20207;-61
2023/09/24 10:01:37;;;;;;;2.88;1.88;;;18.80;99.90;;;;;;5032998;28;20234;-62
2023/09/24 10:04:05;;;;;;;4.07;1.42;;;18.90;99.90;;;;;;5032985;28;20252;-61
2023/09/24 10:06:35;;;;;;;2.53;1.55;;;19.00;99.90;;;;;;5032932;28;20210;-61
2023/09/24 10:09:02;;;;;;;3.45;1.35;;;19.00;99.90;;;;;;5032944;28;20585;-61
2023/09/24 10:12:00;;;;;;;3.88;1.58;;;19.10;99.90;;;;;;5032711;28;20726;-61
2023/09/24 10:14:36;;;;;;;3.67;1.40;;;19.40;99.90;;;;;;4967677;28;20232;-60
2023/09/24 10:17:20;;;;;;;3.88;1.60;;;19.50;99.90;;;;;;5014800;28;20621;-61
2023/09/24 10:19:49;;;;;;;4.70;1.50;;;19.50;99.90;;;;;;5032716;28;20210;-61
2023/09/24 10:22:26;;;;;;;4.88;1.60;;;19.50;99.90;;;;;;5032734;28;20349;-61
2023/09/24 10:24:53;;;;;;;3.50;1.48;;;19.50;99.90;;;;;;5032454;28;20329;-63
2023/09/24 10:27:27;;;;;;;2.83;1.70;;;19.40;99.90;;;;;;5032811;28;20206;-62
2023/09/24 10:30:04;;;;;;;3.03;1.63;;;19.40;99.90;;;;;;5032389;28;20197;-62
2023/09/24 10:32:51;;;;;;;2.90;1.58;;;19.60;99.90;;;;;;5032446;28;20403;-62
2023/09/24 10:35:19;;;;;;;4.15;1.15;;;19.90;99.90;;;;;;5026923;28;20229;-61
2023/09/24 10:38:03;;;;;;;4.18;1.50;;;19.90;99.90;;;;;;5032187;28;20263;-61
2023/09/24 10:40:30;;;;;;;3.47;1.40;;;20.00;99.90;;;;;;5032358;28;20206;-61
2023/09/24 10:43:17;;;;;;;21.15;13.55;;;20.00;99.90;;;;;;5024129;28;20213;-61
2023/09/24 10:45:46;;;;;;;7.03;4.57;;;20.00;99.90;;;;;;5032105;28;20226;-61
2023/09/24 10:48:14;;;;;;;3.80;1.52;;;20.10;99.90;;;;;;5032299;28;20205;-59
2023/09/24 10:50:42;;;;;;;4.28;2.20;;;20.30;99.90;;;;;;5032241;28;20226;-60
2023/09/24 10:53:09;;;;;;;3.80;1.85;;;20.30;99.90;;;;;;5032089;28;20209;-62
2023/09/24 10:55:37;;;;;;;2.90;1.38;;;20.40;99.90;;;;;;5031527;28;20726;-62
2023/09/24 10:58:06;;;;;;;3.05;1.20;;;20.40;99.90;;;;;;5031886;28;20198;-61
2023/09/24 11:00:34;;;;;;;2.60;1.63;;;20.20;99.90;;;;;;5032011;28;20202;-60
2023/09/24 11:03:05;;;;;;;3.88;2.63;;;20.20;99.90;;;;;;5031856;28;20631;-61
2023/09/24 11:05:36;;;;;;;3.25;1.92;;;20.30;99.90;;;;;;5031319;28;20233;-60
2023/09/24 11:08:03;;;;;;;5.22;1.80;;;20.40;99.90;;;;;;5024392;28;20206;-61
2023/09/24 11:10:30;;;;;;;3.47;1.88;;;20.60;99.90;;;;;;5031958;28;20226;-61
2023/09/24 11:13:00;;;;;;;2.47;1.40;;;20.70;99.90;;;;;;5032138;28;20198;-63
2023/09/24 11:15:31;;;;;;;3.65;2.78;;;20.80;99.90;;;;;;5031785;28;20232;-62
2023/09/24 11:17:58;;;;;;;4.25;1.80;;;20.90;99.90;;;;;;5031845;28;20206;-63
2023/09/24 11:20:28;;;;;;;6.57;4.55;;;21.00;99.90;;;;;;5031557;28;20198;-60
2023/09/24 11:22:58;;;;;;;3.88;2.35;;;20.90;99.90;;;;;;5031922;28;20252;-60
2023/09/24 11:25:25;;;;;;;4.20;1.63;;;20.60;99.90;;;;;;5022356;28;20735;-62
2023/09/24 11:27:52;;;;;;;4.93;1.90;;;20.30;99.90;;;;;;5019724;28;20476;-64
2023/09/24 11:30:21;;;;;;;2.20;1.38;;;20.20;99.90;;;;;;5019622;28;20249;-64
2023/09/24 11:32:50;;;;;;;2.10;1.30;;;20.10;99.90;;;;;;5021658;28;20211;-63
2023/09/24 11:35:18;;;;;;;2.22;1.55;;;20.10;99.90;;;;;;5022328;28;20267;-65
2023/09/24 11:37:52;;;;;;;1.77;1.40;;;20.10;99.90;;;;;;5020954;28;20206;-65
2023/09/24 11:40:27;;;;;;;2.20;1.33;;;20.10;99.90;;;;;;5019614;28;20272;-63
2023/09/24 11:42:54;;;;;;;1.58;1.08;;;20.00;99.90;;;;;;5022569;28;20221;-64
2023/09/24 11:45:46;;;;;;;2.78;1.30;;;20.00;99.90;;;;;;5022555;28;20226;-65
2023/09/24 11:48:15;;;;;;;2.13;1.50;;;20.10;99.90;;;;;;5015871;28;20298;-64
2023/09/24 11:50:43;;;;;;;2.92;1.48;;;20.20;99.90;;;;;;5021001;28;20719;-64
2023/09/24 11:53:12;;;;;;;2.55;1.50;;;20.00;99.90;;;;;;5023440;28;20210;-62
2023/09/24 11:55:40;;;;;;;2.03;1.27;;;19.90;99.90;;;;;;5021364;28;20703;-61
2023/09/24 11:58:07;;;;;;;1.60;0.98;;;20.10;99.90;;;;;;5019302;28;20203;-62
2023/09/24 12:00:35;;;;;;;2.65;1.40;;;20.30;99.90;;;;;;5019220;28;20207;-64
2023/09/24 12:03:03;;;;;;;2.58;1.40;;;20.60;99.90;;;;;;5015447;28;20202;-60
2023/09/24 12:05:30;;;;;;;2.03;1.30;;;20.70;99.40;;;;;;5022652;28;20230;-60
2023/09/24 12:07:57;;;;;;;4.15;1.60;;;20.90;99.00;;;;;;5022582;28;20202;-61
2023/09/24 12:10:26;;;;;;;1.83;1.33;;;21.00;98.90;;;;;;5024117;28;20586;-60
2023/09/24 12:12:52;;;;;;;2.47;1.20;;;21.00;99.10;;;;;;5021631;28;20400;-60
2023/09/24 12:15:19;;;;;;;4.95;1.30;;;21.10;98.80;;;;;;5022586;28;20226;-61
2023/09/24 12:17:47;;;;;;;5.75;1.63;;;21.10;98.70;;;;;;5021153;28;20206;-64
2023/09/24 12:20:14;;;;;;;3.08;1.45;;;21.00;98.80;;;;;;5019247;28;20218;-64
2023/09/24 12:22:43;;;;;;;2.25;1.13;;;21.00;99.00;;;;;;5019719;28;20211;-64
2023/09/24 12:25:11;;;;;;;1.63;1.10;;;21.10;98.60;;;;;;5019574;28;20262;-63
2023/09/24 12:27:40;;;;;;;2.35;1.80;;;21.10;98.60;;;;;;5019636;28;20301;-65
2023/09/24 12:30:10;;;;;;;4.18;1.42;;;21.10;98.30;;;;;;5022664;28;20206;-64
2023/09/24 12:32:37;;;;;;;2.10;1.10;;;21.00;98.50;;;;;;5022381;28;20447;-67
2023/09/24 12:35:06;;;;;;;2.65;1.40;;;20.80;98.50;;;;;;5022769;28;20234;-62
2023/09/24 12:37:34;;;;;;;1.77;1.27;;;20.60;97.90;;;;;;5023068;28;20225;-62
2023/09/24 12:40:02;;;;;;;1.75;1.27;;;20.50;98.10;;;;;;5022628;28;20722;-64
2023/09/24 12:42:31;;;;;;;4.68;1.75;;;20.50;98.30;;;;;;5022839;28;20206;-62
2023/09/24 12:44:59;;;;;;;3.28;1.58;;;20.50;98.20;;;;;;5024847;28;20312;-62
2023/09/24 12:47:28;;;;;;;2.78;1.30;;;20.40;97.60;;;;;;5024583;28;20230;-62
2023/09/24 12:49:56;;;;;;;1.67;1.27;;;20.20;97.20;;;;;;5025321;28;20700;-61
2023/09/24 12:52:24;;;;;;;2.67;1.50;;;20.40;97.20;;;;;;5026486;28;20244;-61
2023/09/24 12:54:51;;;;;;;2.58;1.52;;;20.60;97.10;;;;;;5024644;28;20336;-62